Time;durP1;ratioP1;P1;durP2;ratioP2;P2;SDS_P1;SDS_P2;PMS_P1;PMS_P2;Temp;Humidity;BMP_temperature;BMP_pressure;BME280_temperature;BME280_humidity;BME280_pressure;Samples;Min_cycle;Max_cycle;Signal;HPM_P1;HPM_P2
2024/04/02 00:00:05;;;;;;;33.30;8.70;;;;;;;17.33;85.46;99180.23;87190;269;136176;-73
2024/04/02 00:02:09;;;;;;;33.30;8.50;;;;;;;17.31;85.73;99178.23;87375;270;23278;-72
2024/04/02 00:04:12;;;;;;;31.70;9.00;;;;;;;17.28;86.20;99173.41;87291;267;137513;-73
2024/04/02 00:06:13;;;;;;;26.90;7.20;;;;;;;17.27;86.29;99173.52;87325;270;24146;-73
2024/04/02 00:08:14;;;;;;;30.30;8.70;;;;;;;17.27;86.36;99166.84;87216;266;136170;-77
2024/04/02 00:10:14;;;;;;;34.20;8.20;;;;;;;17.26;86.43;99166.23;87317;271;22573;-75
2024/04/02 00:12:15;;;;;;;35.20;9.40;;;;;;;17.25;86.74;99165.20;87251;274;136675;-78
2024/04/02 00:14:16;;;;;;;31.30;7.20;;;;;;;17.25;86.90;99163.44;87340;266;22518;-76
2024/04/02 00:16:16;;;;;;;33.70;8.10;;;;;;;17.24;87.01;99158.95;87228;277;139890;-72
2024/04/02 00:18:18;;;;;;;30.70;7.70;;;;;;;17.24;87.32;99162.02;87394;279;22600;-74
2024/04/02 00:20:20;;;;;;;37.30;9.10;;;;;;;17.25;87.34;99162.46;87225;277;137193;-73
2024/04/02 00:22:20;;;;;;;34.60;8.10;;;;;;;17.25;87.46;99166.48;87504;271;25415;-74
2024/04/02 00:24:21;;;;;;;23.80;7.90;;;;;;;17.26;87.75;99164.52;87421;266;137819;-74
2024/04/02 00:26:22;;;;;;;26.80;7.90;;;;;;;17.25;87.78;99161.13;87346;277;22987;-73
2024/04/02 00:28:23;;;;;;;27.30;6.90;;;;;;;17.26;87.84;99160.64;87434;277;137069;-74
2024/04/02 00:30:25;;;;;;;27.20;7.60;;;;;;;17.26;87.73;99154.06;87631;267;23498;-73
2024/04/02 00:32:26;;;;;;;40.90;8.90;;;;;;;17.23;88.05;99149.25;87491;279;137636;-74
2024/04/02 00:34:27;;;;;;;28.80;8.90;;;;;;;17.24;88.15;99148.88;87389;275;22556;-75
2024/04/02 00:36:27;;;;;;;29.00;8.00;;;;;;;17.21;88.39;99148.43;87255;274;136063;-75
2024/04/02 00:38:28;;;;;;;34.00;9.00;;;;;;;17.17;88.71;99151.53;87362;264;22566;-74
2024/04/02 00:40:29;;;;;;;34.80;8.40;;;;;;;17.13;89.02;99142.63;87281;278;137048;-75
2024/04/02 00:42:29;;;;;;;28.10;6.60;;;;;;;17.08;89.49;99143.02;87245;271;24268;-75
2024/04/02 00:44:33;;;;;;;27.80;6.30;;;;;;;17.08;89.19;99138.98;87145;271;136632;-72
2024/04/02 00:46:34;;;;;;;32.80;7.80;;;;;;;17.08;89.31;99134.09;87366;275;22738;-76
2024/04/02 00:48:35;;;;;;;24.20;7.20;;;;;;;17.08;89.57;99138.23;87127;279;136960;-75
2024/04/02 00:50:36;;;;;;;35.00;9.00;;;;;;;17.09;89.51;99140.67;87212;273;24151;-75
2024/04/02 00:52:40;;;;;;;23.40;6.30;;;;;;;17.10;89.39;99139.86;87101;272;136861;-72
2024/04/02 00:54:41;;;;;;;34.70;7.80;;;;;;;17.10;89.32;99135.93;87231;270;25111;-74
2024/04/02 00:56:43;;;;;;;33.60;8.60;;;;;;;17.09;89.44;99137.60;87156;274;137655;-75
2024/04/02 00:58:44;;;;;;;26.80;9.50;;;;;;;17.07;89.67;99131.98;87007;279;26208;-73
2024/04/02 01:00:45;;;;;;;36.00;8.80;;;;;;;17.03;89.95;99127.94;87123;262;136160;-72
2024/04/02 01:02:46;;;;;;;33.60;6.60;;;;;;;17.01;89.81;99124.73;87279;271;22573;-72
2024/04/02 01:04:47;;;;;;;31.50;7.30;;;;;;;16.98;89.88;99123.86;87093;271;135927;-73
2024/04/02 01:06:48;;;;;;;37.90;6.60;;;;;;;16.94;90.41;99123.73;87232;271;22662;-71
2024/04/02 01:08:49;;;;;;;32.20;8.10;;;;;;;16.90;90.65;99120.95;87176;274;136207;-76
2024/04/02 01:10:51;;;;;;;32.30;8.00;;;;;;;16.90;90.47;99123.33;87357;275;22538;-75
2024/04/02 01:12:52;;;;;;;24.00;7.20;;;;;;;16.90;90.49;99123.00;87261;266;137329;-74
2024/04/02 01:14:53;;;;;;;24.40;6.90;;;;;;;16.85;90.84;99124.63;87361;273;22558;-75
2024/04/02 01:16:54;;;;;;;30.30;7.90;;;;;;;16.66;91.95;99118.77;87246;271;136758;-80
2024/04/02 01:18:54;;;;;;;29.40;8.10;;;;;;;16.79;91.50;99114.95;87388;270;25149;-77
2024/04/02 01:20:56;;;;;;;28.80;7.80;;;;;;;16.87;90.62;99118.62;87225;269;137087;-73
2024/04/02 01:22:56;;;;;;;38.90;8.70;;;;;;;16.87;90.60;99114.59;87346;270;26377;-77
2024/04/02 01:24:59;;;;;;;34.60;8.00;;;;;;;16.85;90.41;99117.54;87262;273;136446;-78
2024/04/02 01:27:02;;;;;;;27.50;7.20;;;;;;;16.81;90.51;99114.20;87238;271;22979;-80
2024/04/02 01:29:03;;;;;;;26.90;7.10;;;;;;;16.77;90.68;99114.05;87139;269;137533;-76
2024/04/02 01:31:04;;;;;;;25.80;7.70;;;;;;;16.75;90.78;99107.85;87341;270;22559;-78
2024/04/02 01:33:05;;;;;;;23.30;7.10;;;;;;;16.70;90.86;99108.14;87242;270;136383;-78
2024/04/02 01:35:06;;;;;;;32.00;7.70;;;;;;;16.67;90.92;99098.21;87373;274;26409;-79
2024/04/02 01:37:06;;;;;;;24.50;6.90;;;;;;;16.63;91.03;99097.65;87165;278;136675;-72
2024/04/02 01:39:07;;;;;;;23.60;6.70;;;;;;;16.62;91.08;99094.86;87362;278;24154;-73
2024/04/02 01:41:08;;;;;;;30.90;8.40;;;;;;;16.62;91.07;99090.88;87127;278;136615;-72
2024/04/02 01:43:08;;;;;;;25.80;8.10;;;;;;;16.61;91.03;99088.98;87291;270;21607;-72
2024/04/02 01:45:11;;;;;;;34.10;7.10;;;;;;;16.59;91.20;99094.28;87292;263;136396;-78
2024/04/02 01:47:11;;;;;;;34.50;8.10;;;;;;;16.57;91.36;99094.45;87395;278;25089;-72
2024/04/02 01:49:12;;;;;;;28.90;7.10;;;;;;;16.54;91.34;99091.79;87260;271;137084;-74
2024/04/02 01:51:13;;;;;;;28.10;7.20;;;;;;;16.50;91.51;99087.34;87220;272;25217;-77
2024/04/02 01:53:13;;;;;;;30.70;6.30;;;;;;;16.46;91.55;99082.09;87268;270;136665;-81
2024/04/02 01:55:14;;;;;;;30.30;7.20;;;;;;;16.44;91.59;99072.29;87393;269;24380;-69
2024/04/02 01:57:14;;;;;;;23.80;6.70;;;;;;;16.41;91.55;99066.89;87237;274;138280;-69
2024/04/02 01:59:16;;;;;;;25.90;8.10;;;;;;;16.38;91.51;99059.61;87357;274;25330;-71
2024/04/02 02:01:17;;;;;;;34.80;7.50;;;;;;;16.34;91.44;99060.98;87179;270;136685;-72
2024/04/02 02:03:18;;;;;;;30.60;6.80;;;;;;;16.31;91.55;99064.17;87408;270;24901;-73
2024/04/02 02:05:18;;;;;;;40.40;8.00;;;;;;;16.29;91.74;99064.86;88198;269;136848;-74
2024/04/02 02:07:19;;;;;;;29.50;6.00;;;;;;;16.26;91.66;99065.32;87388;269;25092;-73
2024/04/02 02:09:19;;;;;;;25.00;7.20;;;;;;;16.23;91.69;99067.45;87364;274;136899;-75
2024/04/02 02:11:20;;;;;;;36.50;8.40;;;;;;;16.22;91.81;99062.43;87705;278;23998;-73
2024/04/02 02:13:21;;;;;;;31.60;7.60;;;;;;;16.21;91.62;99058.02;87228;271;136482;-72
2024/04/02 02:15:22;;;;;;;32.30;7.00;;;;;;;16.20;91.51;99060.59;87411;277;25121;-74
2024/04/02 02:17:22;;;;;;;33.50;7.00;;;;;;;16.19;91.40;99053.34;87315;274;136977;-72
2024/04/02 02:19:23;;;;;;;27.30;8.50;;;;;;;16.17;91.35;99041.96;87390;266;22581;-74
2024/04/02 02:21:24;;;;;;;24.60;6.80;;;;;;;16.17;91.23;99040.94;87162;275;136994;-78
2024/04/02 02:23:26;;;;;;;36.20;6.90;;;;;;;16.15;91.22;99042.28;87420;265;22561;-78
2024/04/02 02:25:27;;;;;;;23.40;7.30;;;;;;;16.16;91.09;99042.98;87800;266;137860;-75
2024/04/02 02:27:27;;;;;;;30.70;7.20;;;;;;;16.14;90.98;99040.50;87761;273;26023;-77
2024/04/02 02:29:28;;;;;;;28.80;8.40;;;;;;;16.13;90.96;99031.56;87695;265;138068;-80
2024/04/02 02:31:29;;;;;;;22.80;6.40;;;;;;;16.14;90.81;99026.25;87366;272;22594;-76
2024/04/02 02:33:29;;;;;;;25.80;7.30;;;;;;;16.12;90.87;99025.11;87323;270;136893;-74
2024/04/02 02:35:30;;;;;;;35.20;8.40;;;;;;;16.13;90.85;99029.20;86756;269;814517;-71
2024/04/02 02:37:31;;;;;;;28.70;7.90;;;;;;;16.12;90.91;99029.73;87413;270;137168;-76
2024/04/02 02:39:32;;;;;;;33.60;6.50;;;;;;;16.10;90.72;99024.11;87449;273;22693;-79
2024/04/02 02:41:32;;;;;;;20.70;5.60;;;;;;;16.09;90.65;99027.54;87362;274;136652;-76
2024/04/02 02:43:34;;;;;;;26.50;6.20;;;;;;;16.07;90.78;99032.48;87493;274;22724;-77
2024/04/02 02:45:35;;;;;;;28.60;6.90;;;;;;;16.04;90.82;99033.81;87269;274;137891;-75
2024/04/02 02:47:36;;;;;;;25.20;6.60;;;;;;;16.11;90.44;99033.42;87385;270;25353;-70
2024/04/02 02:49:37;;;;;;;23.90;6.70;;;;;;;15.97;90.76;99027.51;87265;277;136721;-78
2024/04/02 02:51:37;;;;;;;31.00;8.40;;;;;;;15.97;90.84;99024.61;87413;278;24001;-83
2024/04/02 02:53:38;;;;;;;33.30;7.10;;;;;;;15.98;90.79;99028.43;87292;278;137374;-80
2024/04/02 02:55:39;;;;;;;28.10;7.10;;;;;;;15.98;90.71;99030.25;87410;277;24143;-80
2024/04/02 02:57:39;;;;;;;25.30;5.70;;;;;;;15.98;90.62;99028.48;87359;276;136450;-78
2024/04/02 02:59:40;;;;;;;26.40;7.00;;;;;;;15.95;90.73;99028.19;87428;273;24071;-82
2024/04/02 03:01:41;;;;;;;32.00;6.00;;;;;;;15.94;90.71;99029.04;87413;273;137274;-86
2024/04/02 03:03:42;;;;;;;20.40;6.10;;;;;;;15.92;90.86;99029.61;87536;269;25191;-83
2024/04/02 03:05:53;;;;;;;28.70;6.20;;;;;;;15.89;91.03;99033.83;87298;270;137407;-76
2024/04/02 03:07:54;;;;;;;29.60;6.50;;;;;;;15.86;91.10;99029.45;87394;270;23927;-74
2024/04/02 03:09:54;;;;;;;25.30;6.30;;;;;;;15.82;91.25;99031.61;87293;268;136713;-80
2024/04/02 03:11:55;;;;;;;34.80;7.80;;;;;;;15.79;91.35;99028.05;87413;263;22641;-83
2024/04/02 03:13:56;;;;;;;29.00;7.80;;;;;;;15.78;91.36;99023.56;87356;274;136480;-80
2024/04/02 03:15:56;;;;;;;19.10;6.20;;;;;;;15.77;91.45;99021.52;87578;269;25432;-81
2024/04/02 03:17:59;;;;;;;31.70;6.80;;;;;;;15.75;91.56;99020.86;87845;266;136683;-81
2024/04/02 03:20:00;;;;;;;26.40;7.70;;;;;;;15.73;91.64;99016.88;88695;266;22556;-81
2024/04/02 03:22:01;;;;;;;28.70;6.60;;;;;;;15.74;91.53;99017.20;88380;267;137056;-81
2024/04/02 03:24:01;;;;;;;27.30;6.90;;;;;;;15.74;91.63;99015.52;88441;274;22537;-77
2024/04/02 03:26:02;;;;;;;22.80;7.90;;;;;;;15.74;91.58;99012.19;88213;278;136908;-80
2024/04/02 03:28:05;;;;;;;24.30;7.30;;;;;;;15.73;91.62;99013.58;88765;270;136995;-70
2024/04/02 03:30:07;;;;;;;24.20;7.20;;;;;;;15.72;91.50;99011.52;88684;266;22547;-78
2024/04/02 03:32:08;;;;;;;23.40;7.40;;;;;;;15.71;91.55;99009.08;88681;268;136485;-86
2024/04/02 03:34:08;;;;;;;27.40;7.50;;;;;;;15.69;91.67;99007.73;88930;266;22551;-83
2024/04/02 03:36:09;;;;;;;27.20;6.90;;;;;;;15.70;91.53;99007.25;88106;266;136234;-85
2024/04/02 03:38:11;;;;;;;29.50;7.90;;;;;;;15.65;91.74;99011.50;88319;273;23754;-85
2024/04/02 03:40:12;;;;;;;30.80;7.00;;;;;;;15.59;92.20;99009.52;87492;273;136149;-69
2024/04/02 03:42:12;;;;;;;31.60;8.00;;;;;;;15.52;92.46;99004.61;87402;266;22547;-83
2024/04/02 03:44:13;;;;;;;28.90;7.00;;;;;;;15.49;92.78;99003.44;87291;279;138641;-85
2024/04/02 03:46:14;;;;;;;41.60;7.30;;;;;;;15.45;93.07;99005.45;87374;271;22586;-79
2024/04/02 03:48:15;;;;;;;28.80;6.60;;;;;;;15.41;93.22;99003.36;87326;279;138584;-83
2024/04/02 03:50:15;;;;;;;30.80;7.00;;;;;;;15.40;93.12;99003.56;87420;267;22544;-82
2024/04/02 03:52:16;;;;;;;30.90;6.70;;;;;;;15.39;93.44;99006.51;87394;275;136695;-79
2024/04/02 03:54:17;;;;;;;43.80;7.20;;;;;;;15.36;93.57;99000.89;87526;270;22564;-84
2024/04/02 03:56:18;;;;;;;21.70;6.50;;;;;;;15.35;93.53;98998.89;87724;270;136513;-79
2024/04/02 03:58:18;;;;;;;28.10;7.20;;;;;;;15.33;93.61;98995.39;87838;278;22568;-79
2024/04/02 04:00:19;;;;;;;19.00;6.50;;;;;;;15.34;93.59;98995.98;87309;277;138224;-78
2024/04/02 04:02:20;;;;;;;24.50;7.20;;;;;;;15.33;93.71;98991.52;87308;279;22565;-83
2024/04/02 04:04:20;;;;;;;25.90;6.70;;;;;;;15.31;93.87;98983.07;87583;270;137062;-80
2024/04/02 04:06:21;;;;;;;27.10;6.20;;;;;;;15.29;93.86;98980.47;87478;270;26220;-77
2024/04/02 04:08:22;;;;;;;37.10;7.20;;;;;;;15.27;93.99;98971.96;87336;268;138179;-79
2024/04/02 04:10:22;;;;;;;27.40;7.00;;;;;;;15.24;94.30;98968.01;87557;269;22568;-77
2024/04/02 04:12:23;;;;;;;21.00;5.60;;;;;;;15.23;94.39;98966.77;87320;266;136742;-78
2024/04/02 04:14:24;;;;;;;29.10;7.10;;;;;;;15.19;94.84;98964.91;87698;266;22590;-78
2024/04/02 04:16:24;;;;;;;27.50;6.50;;;;;;;15.19;94.77;98960.77;87472;270;136993;-78
2024/04/02 04:18:26;;;;;;;29.70;7.90;;;;;;;15.17;94.94;98955.11;87438;269;23021;-82
2024/04/02 04:20:30;;;;;;;32.70;7.20;;;;;;;15.17;94.95;98954.73;87432;271;136760;-77
2024/04/02 04:22:31;;;;;;;35.40;7.70;;;;;;;15.16;95.05;98952.65;87154;267;26187;-80
2024/04/02 04:24:31;;;;;;;33.70;7.70;;;;;;;15.19;94.87;98952.55;87231;270;137120;-79
2024/04/02 04:26:32;;;;;;;30.30;7.60;;;;;;;15.21;94.71;98946.24;87264;272;24026;-81
2024/04/02 04:28:34;;;;;;;40.80;7.10;;;;;;;15.23;94.74;98945.89;87521;273;137101;-85
2024/04/02 04:30:34;;;;;;;26.60;7.00;;;;;;;15.25;94.68;98939.20;87434;274;22560;-78
2024/04/02 04:32:38;;;;;;;26.10;6.90;;;;;;;15.26;94.67;98937.29;87407;269;137041;-77
2024/04/02 04:34:38;;;;;;;31.70;7.90;;;;;;;15.28;94.34;98933.27;87607;269;22543;-87
2024/04/02 04:36:40;;;;;;;21.90;5.80;;;;;;;15.28;94.42;98927.85;87659;269;137540;-81
2024/04/02 04:38:41;;;;;;;24.70;6.40;;;;;;;15.28;94.51;98925.59;87967;273;22593;-81
2024/04/02 04:40:42;;;;;;;31.00;6.40;;;;;;;15.27;94.58;98921.17;87351;277;136889;-79
2024/04/02 04:42:43;;;;;;;29.60;6.90;;;;;;;15.26;94.62;98919.83;87488;273;22551;-85
2024/04/02 04:44:44;;;;;;;26.00;7.00;;;;;;;15.26;94.58;98919.51;87324;269;136961;-82
2024/04/02 04:46:44;;;;;;;26.00;6.40;;;;;;;15.26;94.77;98912.75;87640;267;24082;-84
2024/04/02 04:48:45;;;;;;;25.20;5.80;;;;;;;15.28;94.49;98914.48;87499;273;136550;-79
2024/04/02 04:51:05;;;;;;;21.50;6.30;;;;;;;15.29;94.48;98907.34;87331;274;22549;-79
2024/04/02 04:53:06;;;;;;;31.50;7.80;;;;;;;15.35;94.15;98905.09;87424;274;136117;-84
2024/04/02 04:55:06;;;;;;;24.90;6.50;;;;;;;15.39;93.90;98903.47;87644;270;24577;-79
2024/04/02 04:57:07;;;;;;;29.40;7.10;;;;;;;15.43;93.47;98902.85;87423;277;136587;-77
2024/04/02 04:59:08;;;;;;;33.70;7.10;;;;;;;15.47;93.41;98893.23;87402;269;22555;-74
2024/04/02 05:01:09;;;;;;;28.20;8.20;;;;;;;15.54;92.75;98891.95;87406;274;137241;-86
2024/04/02 05:03:10;;;;;;;27.30;6.90;;;;;;;15.58;92.05;98883.70;87632;277;24007;-80
2024/04/02 05:05:11;;;;;;;22.90;6.60;;;;;;;15.62;91.80;98885.19;87686;274;138256;-80
2024/04/02 05:07:23;;;;;;;31.60;7.60;;;;;;;15.69;91.39;98888.56;88601;262;24064;-83
2024/04/02 05:09:23;;;;;;;26.20;6.40;;;;;;;15.77;90.78;98885.81;88653;269;137405;-71
2024/04/02 05:11:24;;;;;;;31.60;7.40;;;;;;;15.90;90.39;98884.17;87387;269;25227;-76
2024/04/02 05:13:25;;;;;;;25.90;6.90;;;;;;;16.05;89.04;98885.44;87211;275;136807;-78
2024/04/02 05:15:25;;;;;;;22.20;6.30;;;;;;;16.15;88.29;98879.98;87294;274;23893;-77
2024/04/02 05:17:29;;;;;;;18.10;6.10;;;;;;;16.25;87.57;98882.33;87480;271;137097;-79
2024/04/02 05:19:30;;;;;;;30.20;7.80;;;;;;;16.32;86.56;98882.16;87611;268;24250;-86
2024/04/02 05:21:31;;;;;;;32.80;8.60;;;;;;;16.36;86.03;98882.45;87327;267;136432;-81
2024/04/02 05:23:32;;;;;;;31.80;7.30;;;;;;;16.34;85.79;98880.07;87323;277;22528;-84
2024/04/02 05:25:33;;;;;;;26.80;7.90;;;;;;;16.32;85.81;98882.80;87442;266;137345;-80
2024/04/02 05:27:34;;;;;;;26.80;6.50;;;;;;;16.31;85.91;98882.36;87670;273;24270;-81
2024/04/02 05:29:35;;;;;;;22.90;7.50;;;;;;;16.32;85.48;98876.61;87534;269;136289;-76
2024/04/02 05:31:35;;;;;;;25.20;6.40;;;;;;;16.33;85.45;98875.97;87808;269;24000;-84
2024/04/02 05:33:36;;;;;;;27.20;7.30;;;;;;;16.33;84.93;98876.40;87605;277;135975;-79
2024/04/02 05:35:37;;;;;;;24.30;6.90;;;;;;;16.31;84.73;98871.40;87820;278;25357;-74
2024/04/02 05:37:37;;;;;;;26.60;5.90;;;;;;;16.30;84.96;98872.95;87469;271;136691;-81
2024/04/02 05:39:38;;;;;;;36.50;8.20;;;;;;;16.28;84.74;98873.69;88261;278;22563;-79
2024/04/02 05:41:38;;;;;;;30.00;6.60;;;;;;;16.27;84.83;98874.88;88145;277;136567;-81
2024/04/02 05:43:39;;;;;;;34.00;7.60;;;;;;;16.29;84.80;98876.06;88906;271;22566;-73
2024/04/02 05:45:40;;;;;;;25.20;6.90;;;;;;;16.35;84.63;98871.58;88122;266;137108;-78
2024/04/02 05:47:43;;;;;;;23.90;6.40;;;;;;;16.45;84.55;98877.27;89278;265;22669;-80
2024/04/02 05:49:43;;;;;;;30.00;6.80;;;;;;;16.59;83.47;98870.70;88737;270;136683;-76
2024/04/02 05:51:44;;;;;;;28.80;6.20;;;;;;;16.68;82.51;98870.58;87680;266;23054;-77
2024/04/02 05:53:45;;;;;;;24.60;7.10;;;;;;;16.77;82.37;98874.33;87212;279;136778;-72
2024/04/02 05:55:47;;;;;;;26.00;6.60;;;;;;;16.88;81.51;98861.89;87190;272;22563;-70
2024/04/02 05:57:48;;;;;;;30.40;6.80;;;;;;;16.98;81.05;98856.80;87221;274;135745;-76
2024/04/02 05:59:51;;;;;;;28.20;6.10;;;;;;;17.18;80.75;98852.29;87180;275;22569;-75
2024/04/02 06:01:52;;;;;;;22.60;6.40;;;;;;;17.43;79.06;98846.29;87315;277;136160;-76
2024/04/02 06:03:53;;;;;;;31.70;6.10;;;;;;;17.67;78.33;98837.05;87358;266;25303;-75
2024/04/02 06:05:53;;;;;;;26.30;7.30;;;;;;;17.91;75.61;98832.02;87202;271;136556;-77
2024/04/02 06:07:57;;;;;;;26.20;6.70;;;;;;;17.98;74.77;98828.88;87467;270;22495;-67
2024/04/02 06:09:58;;;;;;;28.20;6.70;;;;;;;18.03;75.20;98824.21;87177;266;136051;-74
2024/04/02 06:11:58;;;;;;;24.70;6.30;;;;;;;18.18;74.59;98824.55;87196;269;24101;-71
2024/04/02 06:13:59;;;;;;;27.70;7.00;;;;;;;18.37;73.02;98828.25;87274;271;136926;-84
2024/04/02 06:16:00;;;;;;;26.10;7.30;;;;;;;18.51;72.79;98822.40;87444;266;22580;-80
2024/04/02 06:18:00;;;;;;;25.50;8.70;;;;;;;18.68;72.94;98823.96;87396;269;136032;-80
2024/04/02 06:20:02;;;;;;;30.60;8.30;;;;;;;18.93;70.15;98821.34;87589;269;22654;-80
2024/04/02 06:22:03;;;;;;;28.70;8.40;;;;;;;18.99;69.59;98811.20;87501;269;22547;-75
2024/04/02 06:24:04;;;;;;;29.90;8.60;;;;;;;18.99;69.22;98816.92;87561;276;136666;-79
2024/04/02 06:26:05;;;;;;;31.90;7.40;;;;;;;18.88;69.18;98809.59;87461;270;22503;-82
2024/04/02 06:28:06;;;;;;;26.10;7.40;;;;;;;18.69;70.02;98808.87;87508;277;136134;-83
2024/04/02 06:30:07;;;;;;;33.00;6.90;;;;;;;18.51;70.65;98809.25;88243;274;23799;-81
2024/04/02 06:32:09;;;;;;;23.00;6.40;;;;;;;18.36;71.46;98802.73;87729;270;136373;-83
2024/04/02 06:34:10;;;;;;;35.30;8.20;;;;;;;18.33;71.79;98805.93;88299;266;22515;-83
2024/04/02 06:38:06;;;;;;;29.10;9.70;;;;;;;18.35;72.02;98800.38;85237;300;603188;-82
2024/04/02 06:40:07;;;;;;;30.80;8.40;;;;;;;18.48;71.89;98797.27;89521;270;135561;-80
2024/04/02 06:42:07;;;;;;;36.20;9.40;;;;;;;18.67;71.09;98805.81;89356;282;22332;-79
2024/04/02 06:44:08;;;;;;;35.00;8.60;;;;;;;18.87;70.71;98806.89;89164;283;136225;-80
2024/04/02 06:46:09;;;;;;;34.80;9.90;;;;;;;19.05;69.37;98806.61;86847;287;22541;-75
2024/04/02 06:48:10;;;;;;;29.70;8.70;;;;;;;19.16;68.73;98802.87;86845;280;136356;-82
2024/04/02 06:50:10;;;;;;;41.70;10.00;;;;;;;19.26;68.32;98797.97;86899;269;24205;-78
2024/04/02 06:52:11;;;;;;;33.40;8.50;;;;;;;19.35;68.02;98799.30;86440;275;900136;-81
2024/04/02 06:54:12;;;;;;;33.90;9.70;;;;;;;19.31;67.52;98787.39;86961;284;23875;-79
2024/04/02 06:56:13;;;;;;;29.50;8.40;;;;;;;19.16;68.30;98790.88;87830;279;136032;-76
2024/04/02 06:58:13;;;;;;;41.80;8.00;;;;;;;19.02;68.39;98794.23;87182;278;22584;-80
2024/04/02 07:00:16;;;;;;;35.80;8.80;;;;;;;18.87;68.91;98783.52;87180;272;136027;-77
2024/04/02 07:02:17;;;;;;;24.30;7.30;;;;;;;18.69;69.58;98771.31;88068;276;25243;-81
2024/04/02 07:04:17;;;;;;;32.50;8.00;;;;;;;18.51;70.40;98775.73;87091;279;135982;-73
2024/04/02 07:06:18;;;;;;;22.80;8.10;;;;;;;18.34;71.05;98766.98;87222;270;22648;-66
2024/04/02 07:08:26;;;;;;;27.20;8.30;;;;;;;18.23;71.67;98759.70;87321;274;135934;-75
2024/04/02 07:10:26;;;;;;;28.60;7.50;;;;;;;18.20;72.31;98757.23;88467;267;22580;-75
2024/04/02 07:12:27;;;;;;;44.80;8.60;;;;;;;18.16;72.28;98759.79;87649;267;136254;-73
2024/04/02 07:14:28;;;;;;;32.20;8.30;;;;;;;17.98;72.88;98742.01;87387;270;22616;-79
2024/04/02 07:16:28;;;;;;;39.20;9.00;;;;;;;17.87;73.83;98744.76;87182;278;136456;-78
2024/04/02 07:18:36;;;;;;;25.40;7.30;;;;;;;17.83;74.39;98733.02;87338;273;26196;-71
2024/04/02 07:20:37;;;;;;;34.60;8.10;;;;;;;17.84;74.11;98734.41;87318;265;137671;-76
2024/04/02 07:22:39;;;;;;;35.90;9.90;;;;;;;17.86;74.23;98728.10;87118;272;24182;-72
2024/04/02 07:24:41;;;;;;;25.90;8.10;;;;;;;17.89;74.11;98727.33;87271;267;135879;-71
2024/04/02 07:26:42;;;;;;;39.20;9.10;;;;;;;17.93;73.85;98723.60;87286;271;25450;-75
2024/04/02 07:28:42;;;;;;;30.80;8.10;;;;;;;17.99;73.55;98720.77;87043;272;136355;-75
2024/04/02 07:30:44;;;;;;;25.10;8.60;;;;;;;18.08;73.30;98723.59;87217;275;22649;-73
2024/04/02 07:32:45;;;;;;;33.70;9.30;;;;;;;18.19;73.15;98727.04;87189;268;136099;-75
2024/04/02 07:34:46;;;;;;;37.20;10.40;;;;;;;18.28;72.24;98726.17;87440;278;24831;-76
2024/04/02 07:36:47;;;;;;;27.40;9.80;;;;;;;18.37;71.82;98723.10;87421;269;136164;-71
2024/04/02 07:38:47;;;;;;;20.20;7.40;;;;;;;18.44;71.59;98722.25;87451;270;22564;-85
2024/04/02 07:40:48;;;;;;;40.40;10.80;;;;;;;18.47;69.82;98720.40;87432;273;135665;-72
2024/04/02 07:42:49;;;;;;;32.40;7.80;;;;;;;18.39;69.87;98714.52;87252;277;22614;-70
2024/04/02 07:44:50;;;;;;;32.20;9.10;;;;;;;18.34;70.29;98711.04;87359;277;135497;-72
2024/04/02 07:46:51;;;;;;;30.50;8.90;;;;;;;18.39;70.47;98701.74;87382;280;22596;-78
2024/04/02 07:48:51;;;;;;;29.70;7.40;;;;;;;18.48;70.03;98710.59;87394;271;135368;-70
2024/04/02 07:50:53;;;;;;;34.80;8.30;;;;;;;18.49;69.16;98707.81;87539;270;23974;-71
2024/04/02 07:52:53;;;;;;;39.90;8.80;;;;;;;18.46;68.95;98698.45;87622;266;135564;-72
2024/04/02 07:54:54;;;;;;;32.70;8.00;;;;;;;18.47;68.99;98692.51;87488;272;22576;-72
2024/04/02 07:56:55;;;;;;;34.60;8.30;;;;;;;18.53;68.83;98695.17;87267;266;136196;-78
2024/04/02 07:58:56;;;;;;;36.80;9.50;;;;;;;18.54;68.25;98688.41;87500;270;24051;-69
2024/04/02 08:00:58;;;;;;;34.40;8.20;;;;;;;18.57;68.44;98684.35;87547;278;135695;-70
2024/04/02 08:02:59;;;;;;;29.90;7.40;;;;;;;18.54;68.00;98673.14;87533;270;23320;-73
2024/04/02 08:04:59;;;;;;;36.20;6.70;;;;;;;18.54;68.08;98664.83;87258;269;136032;-70
2024/04/02 08:07:00;;;;;;;26.60;8.00;;;;;;;18.58;68.14;98651.97;87333;270;25791;-70
2024/04/02 08:09:01;;;;;;;43.50;8.90;;;;;;;18.66;67.92;98640.72;87385;266;135577;-69
2024/04/02 08:11:02;;;;;;;37.20;8.30;;;;;;;18.77;67.00;98637.60;87529;268;23385;-70
2024/04/02 08:13:03;;;;;;;30.00;8.30;;;;;;;18.85;66.97;98637.02;87165;278;136056;-71
2024/04/02 08:15:05;;;;;;;31.10;7.60;;;;;;;18.91;66.68;98637.83;87103;271;22584;-70
2024/04/02 08:17:06;;;;;;;36.70;8.50;;;;;;;18.95;65.38;98636.34;87193;277;135897;-71
2024/04/02 08:19:06;;;;;;;34.70;9.00;;;;;;;18.99;65.34;98624.31;87484;270;22575;-69
2024/04/02 08:21:07;;;;;;;37.80;9.50;;;;;;;19.05;65.73;98620.67;87204;269;136235;-69
2024/04/02 08:23:08;;;;;;;38.80;9.90;;;;;;;19.17;65.20;98621.58;87452;269;22581;-71
2024/04/02 08:25:10;;;;;;;33.60;8.20;;;;;;;19.26;64.69;98606.20;87347;270;135393;-68
2024/04/02 08:27:11;;;;;;;41.80;9.40;;;;;;;19.38;64.81;98609.51;87240;270;22557;-72
2024/04/02 08:29:12;;;;;;;34.30;9.70;;;;;;;19.50;64.16;98610.55;87287;270;135703;-74
2024/04/02 08:31:13;;;;;;;37.90;10.30;;;;;;;19.56;63.58;98610.38;87445;266;25118;-69
2024/04/02 08:33:14;;;;;;;34.30;8.00;;;;;;;19.61;63.12;98600.27;87395;273;136226;-70
2024/04/02 08:35:14;;;;;;;35.40;7.40;;;;;;;19.67;63.09;98600.41;87426;279;25202;-72
2024/04/02 08:37:15;;;;;;;26.00;7.90;;;;;;;19.74;62.98;98596.31;87348;269;137663;-74
2024/04/02 08:39:17;;;;;;;40.20;8.90;;;;;;;19.83;62.96;98598.52;87584;278;22678;-70
2024/04/02 08:41:18;;;;;;;25.60;6.40;;;;;;;19.94;63.05;98588.59;87151;263;135921;-70
2024/04/02 08:43:21;;;;;;;38.40;8.40;;;;;;;20.07;61.21;98591.76;87238;266;22728;-69
2024/04/02 08:45:22;;;;;;;43.50;8.60;;;;;;;20.14;60.42;98578.77;87007;269;136166;-69
2024/04/02 08:47:25;;;;;;;39.30;8.20;;;;;;;20.24;60.40;98579.54;87314;271;22572;-74
2024/04/02 08:49:26;;;;;;;41.20;11.10;;;;;;;20.36;59.80;98578.31;87413;266;136874;-72
2024/04/02 08:51:27;;;;;;;49.00;10.10;;;;;;;20.48;59.07;98581.38;87455;270;22796;-73
2024/04/02 08:53:28;;;;;;;46.60;9.10;;;;;;;20.56;58.90;98578.25;87450;271;136061;-71
2024/04/02 08:55:29;;;;;;;36.50;7.30;;;;;;;20.63;58.66;98569.02;87452;271;23902;-72
2024/04/02 08:57:30;;;;;;;33.00;8.50;;;;;;;20.71;58.20;98567.58;87211;270;136873;-75
2024/04/02 08:59:32;;;;;;;37.90;9.00;;;;;;;20.80;58.01;98566.74;87504;274;22648;-71
2024/04/02 09:01:33;;;;;;;55.00;10.50;;;;;;;20.90;56.28;98577.27;87387;275;135728;-70
2024/04/02 09:03:34;;;;;;;36.50;8.60;;;;;;;20.94;55.89;98571.16;87292;266;22623;-69
2024/04/02 09:05:35;;;;;;;44.40;10.10;;;;;;;20.96;55.35;98564.14;87285;265;137172;-73
2024/04/02 09:07:36;;;;;;;33.50;8.90;;;;;;;20.95;55.15;98545.47;87281;267;22568;-74
2024/04/02 09:09:37;;;;;;;54.70;8.80;;;;;;;20.97;54.89;98552.96;87316;274;137733;-70
2024/04/02 09:11:38;;;;;;;58.10;10.70;;;;;;;20.96;54.80;98539.48;87251;270;22628;-69
2024/04/02 09:13:42;;;;;;;46.00;9.60;;;;;;;20.96;54.84;98530.77;87409;279;135592;-70
2024/04/02 09:15:42;;;;;;;46.10;8.50;;;;;;;21.02;54.60;98523.55;87417;279;22955;-72
2024/04/02 09:17:43;;;;;;;35.80;9.30;;;;;;;21.08;54.40;98522.25;87439;278;135536;-71
2024/04/02 09:19:44;;;;;;;29.20;7.00;;;;;;;21.16;54.36;98527.89;87532;267;24049;-82
2024/04/02 09:21:45;;;;;;;37.40;7.20;;;;;;;21.17;54.26;98509.98;87299;272;135805;-77
2024/04/02 09:23:45;;;;;;;45.80;8.90;;;;;;;21.20;54.56;98507.20;87725;266;22850;-78
2024/04/02 09:25:48;;;;;;;37.40;7.30;;;;;;;21.25;54.78;98500.33;87521;280;135888;-81
2024/04/02 09:27:50;;;;;;;47.90;9.10;;;;;;;21.35;54.43;98505.16;87357;272;22570;-70